Albelo Primero — ECMU — position and weather

sailwx.info

Track history (hours):
 
Tides and Currents Weather Stations Pressure Air Temp Water Temp Dewpoint Dewpoint Depression Visibility Wind Speed Wind Dir Waves Ship Positions

Albelo Primero

Last reported at 2015-Jun-30 00:11 UTC. Time now 2015-Jun-30 08:21 UTC.
Position N 46°53' W 005°18'.

Length 32 m; draft 3.5 m.

Type: Fishing. MMSI: 225360000.

Date/timePositionNaut miles runAvg speedWind from/ knotsBaromVisibWave heightAir tempDewpointWater temp
2015-Jun-30 00:11N 46°53' W 005°18'2 1.9
2015-Jun-29 23:21N 46°55' W 005°17'1 0.7
2015-Jun-29 22:29N 46°54' W 005°17'4 1.2
2015-Jun-29 19:28N 46°51' W 005°15'1 1.3
2015-Jun-29 18:29N 46°50' W 005°13'1 1.2
2015-Jun-29 17:31N 46°49' W 005°12'1 0.7
2015-Jun-29 16:30N 46°49' W 005°11'1 1.3
2015-Jun-29 15:23N 46°50' W 005°09'1 1.2
2015-Jun-29 14:29N 46°50' W 005°07'2 1.6
2015-Jun-29 13:33N 46°50' W 005°05'1 0.9
2015-Jun-29 12:29N 46°50' W 005°04'1 0.9
2015-Jun-29 11:33N 46°50' W 005°02'1 1.2
2015-Jun-29 10:34N 46°50' W 005°01'1 1.3
2015-Jun-29 09:34N 46°49' W 004°59'1 0.5
2015-Jun-29 08:32N 46°49' W 004°58'1 0.7
2015-Jun-29 07:29N 46°49' W 004°58'0 0.5
2015-Jun-29 06:33N 46°48' W 004°58'0 0.3
2015-Jun-29 05:31N 46°48' W 004°57'0 0.2
2015-Jun-29 04:33N 46°49' W 004°57'2 2.4
2015-Jun-29 03:33N 46°49' W 005°01'8 7.2
2015-Jun-29 02:28N 46°50' W 005°12'7 6.8
2015-Jun-29 01:30N 46°56' W 005°17'3 2.9
2015-Jun-29 00:34N 46°53' W 005°17'1 0.9
2015-Jun-28 23:31N 46°54' W 005°17'1 1.2
2015-Jun-28 22:34N 46°55' W 005°16'1 1.2
2015-Jun-28 21:34N 46°56' W 005°17'1 1.4
2015-Jun-28 20:33N 46°57' W 005°18'1 0.8
2015-Jun-28 19:34N 46°58' W 005°17'7 7.3
2015-Jun-28 18:34N 46°51' W 005°14'1 1.2
2015-Jun-28 17:33N 46°50' W 005°13'1 1.3
2015-Jun-28 16:33N 46°50' W 005°11'1 1.3
2015-Jun-28 15:31N 46°50' W 005°09'1 1.4
2015-Jun-28 14:33N 46°50' W 005°07'1 0.8
2015-Jun-28 13:29N 46°50' W 005°06'4 1.2
2015-Jun-28 10:23N 46°49' W 005°12'1 1.1
2015-Jun-28 09:33N 46°50' W 005°13'4 0.5
2015-Jun-28 02:33N 46°50' W 005°08'8 1.9
2015-Jun-27 22:29N 46°55' W 005°16'3 1.1
2015-Jun-27 20:03N 46°58' W 005°18'1 1.0
2015-Jun-27 19:31N 46°58' W 005°18'0 0.2
2015-Jun-27 18:28N 46°58' W 005°18'1 1.3
2015-Jun-27 17:33N 46°57' W 005°18'1 1.3
2015-Jun-27 16:33N 46°56' W 005°17'1 1.4
2015-Jun-27 15:32N 46°55' W 005°16'1 1.0
2015-Jun-27 14:33N 46°54' W 005°16'4 3.1
2015-Jun-27 13:24N 46°50' W 005°13'0 0.0
2015-Jun-27 02:12N 46°50' W 005°13'4 0.4
2015-Jun-26 15:33N 46°54' W 005°16'1 1.4
2015-Jun-26 14:33N 46°52' W 005°15'2 2.4
2015-Jun-26 13:33N 46°50' W 005°13'1 1.2
2015-Jun-26 12:33N 46°50' W 005°12'1 1.0
2015-Jun-26 11:17N 46°50' W 005°10'2 1.1
2015-Jun-26 09:03N 46°51' W 005°07'1 1.0
2015-Jun-26 08:33N 46°51' W 005°06'2 1.8
2015-Jun-26 07:33N 46°49' W 005°06'1 0.7
2015-Jun-26 06:33N 46°49' W 005°07'1 0.7
2015-Jun-26 05:33N 46°49' W 005°08'1 1.4
2015-Jun-26 04:33N 46°49' W 005°10'10 7.9
2015-Jun-26 03:18N 46°58' W 005°17'6 8.1
2015-Jun-26 02:33N 46°52' W 005°16'7 6.9
2015-Jun-26 01:29N 46°51' W 005°06'0 0.2
2015-Jun-26 00:33N 46°51' W 005°06'8 7.7
2015-Jun-25 23:33N 46°53' W 005°16'1 1.0
2015-Jun-25 22:33N 46°54' W 005°17'1 1.0
2015-Jun-25 21:33N 46°55' W 005°16'1 1.1
2015-Jun-25 20:33N 46°56' W 005°16'1 1.1
2015-Jun-25 19:24N 46°57' W 005°17'1 0.8
2015-Jun-25 18:33N 46°58' W 005°16'1 1.1
2015-Jun-25 17:32N 46°56' W 005°17'1 1.1
2015-Jun-25 16:33N 46°55' W 005°16'1 1.3
2015-Jun-25 15:33N 46°54' W 005°16'1 1.3
2015-Jun-25 14:34N 46°53' W 005°16'2 2.3
2015-Jun-25 13:30N 46°51' W 005°14'1 1.5
2015-Jun-25 12:33N 46°50' W 005°12'1 1.2
2015-Jun-25 11:33N 46°49' W 005°11'1 1.2
2015-Jun-25 10:32N 46°50' W 005°09'1 1.3
2015-Jun-25 09:33N 46°50' W 005°07'1 1.2
2015-Jun-25 08:24N 46°51' W 005°05'2 1.1
2015-Jun-25 06:33N 46°50' W 005°08'0 0.2
2015-Jun-25 05:07N 46°50' W 005°08'3 4.0
2015-Jun-25 04:21N 46°52' W 005°12'2 1.4
2015-Jun-25 02:32N 46°52' W 005°16'1 0.4
2015-Jun-25 00:31N 46°53' W 005°17'1 0.9
2015-Jun-24 23:30N 46°53' W 005°17'1 1.2
2015-Jun-24 22:32N 46°55' W 005°17'1 1.1
2015-Jun-24 21:22N 46°56' W 005°16'1 1.0
2015-Jun-24 20:34N 46°56' W 005°16'1 1.1
2015-Jun-24 19:33N 46°57' W 005°17'0 0.4
2015-Jun-24 18:33N 46°57' W 005°16'3 1.1
2015-Jun-24 15:31N 46°54' W 005°16'2 1.9
2015-Jun-24 14:14N 46°51' W 005°15'2 2.2
2015-Jun-24 13:23N 46°50' W 005°13'1 1.2
2015-Jun-24 12:23N 46°50' W 005°12'  
2015-Jun-20 23:32N 46°12' W 004°52'8 8.0
2015-Jun-20 22:33N 46°18' W 004°45'8 8.2
2015-Jun-20 21:33N 46°25' W 004°38'2 1.8
2015-Jun-20 20:33N 46°26' W 004°37'1 1.1
2015-Jun-20 19:33N 46°25' W 004°36'1 1.1
2015-Jun-20 18:33N 46°24' W 004°35'1 1.1
2015-Jun-20 17:34N 46°24' W 004°34'2 1.8
2015-Jun-20 16:30N 46°24' W 004°32'1 1.2
2015-Jun-20 15:34N 46°23' W 004°31'1 1.0
2015-Jun-20 14:33N 46°22' W 004°30'1 1.3
2015-Jun-20 13:34N 46°21' W 004°29'4 3.6
2015-Jun-20 12:33N 46°17' W 004°28'1 0.6
2015-Jun-20 11:33N 46°17' W 004°27'1 0.7
2015-Jun-20 10:18N 46°18' W 004°26'1 0.9
2015-Jun-20 09:22N 46°19' W 004°26'1 0.7
2015-Jun-20 08:26N 46°19' W 004°26'1 0.7
2015-Jun-20 07:32N 46°20' W 004°26'1 0.7
2015-Jun-20 06:33N 46°21' W 004°26'1 0.6
2015-Jun-20 05:32N 46°21' W 004°27'1 0.5
2015-Jun-20 04:33N 46°22' W 004°27'1 0.8
2015-Jun-20 03:28N 46°21' W 004°28'4 4.4
2015-Jun-20 02:33N 46°23' W 004°34'9 6.4
2015-Jun-20 01:13N 46°30' W 004°40'710.2
2015-Jun-20 00:32N 46°34' W 004°48'  
Track history (hours):
 
Tides and Currents Weather Stations Pressure Air Temp Water Temp Dewpoint Dewpoint Depression Visibility Wind Speed Wind Dir Waves Ship Positions

Albelo Primero

Last reported at 2015-Jun-30 00:11 UTC. Time now 2015-Jun-30 08:21 UTC.
Position N 46°53' W 005°18'.

Length 32 m; draft 3.5 m.

Type: Fishing. MMSI: 225360000.

Date/timePositionNaut miles runAvg speedWind from/ knotsBaromVisibWave heightAir tempDewpointWater temp
2015-Jun-30 00:11N 46°53' W 005°18'2 1.9
2015-Jun-29 23:21N 46°55' W 005°17'1 0.7
2015-Jun-29 22:29N 46°54' W 005°17'4 1.2
2015-Jun-29 19:28N 46°51' W 005°15'1 1.3
2015-Jun-29 18:29N 46°50' W 005°13'1 1.2
2015-Jun-29 17:31N 46°49' W 005°12'1 0.7
2015-Jun-29 16:30N 46°49' W 005°11'1 1.3
2015-Jun-29 15:23N 46°50' W 005°09'1 1.2
2015-Jun-29 14:29N 46°50' W 005°07'2 1.6
2015-Jun-29 13:33N 46°50' W 005°05'1 0.9
2015-Jun-29 12:29N 46°50' W 005°04'1 0.9
2015-Jun-29 11:33N 46°50' W 005°02'1 1.2
2015-Jun-29 10:34N 46°50' W 005°01'1 1.3
2015-Jun-29 09:34N 46°49' W 004°59'1 0.5
2015-Jun-29 08:32N 46°49' W 004°58'1 0.7
2015-Jun-29 07:29N 46°49' W 004°58'0 0.5
2015-Jun-29 06:33N 46°48' W 004°58'0 0.3
2015-Jun-29 05:31N 46°48' W 004°57'0 0.2
2015-Jun-29 04:33N 46°49' W 004°57'2 2.4
2015-Jun-29 03:33N 46°49' W 005°01'8 7.2
2015-Jun-29 02:28N 46°50' W 005°12'7 6.8
2015-Jun-29 01:30N 46°56' W 005°17'3 2.9
2015-Jun-29 00:34N 46°53' W 005°17'1 0.9
2015-Jun-28 23:31N 46°54' W 005°17'1 1.2
2015-Jun-28 22:34N 46°55' W 005°16'1 1.2
2015-Jun-28 21:34N 46°56' W 005°17'1 1.4
2015-Jun-28 20:33N 46°57' W 005°18'1 0.8
2015-Jun-28 19:34N 46°58' W 005°17'7 7.3
2015-Jun-28 18:34N 46°51' W 005°14'1 1.2
2015-Jun-28 17:33N 46°50' W 005°13'1 1.3
2015-Jun-28 16:33N 46°50' W 005°11'1 1.3
2015-Jun-28 15:31N 46°50' W 005°09'1 1.4
2015-Jun-28 14:33N 46°50' W 005°07'1 0.8
2015-Jun-28 13:29N 46°50' W 005°06'4 1.2
2015-Jun-28 10:23N 46°49' W 005°12'1 1.1
2015-Jun-28 09:33N 46°50' W 005°13'4 0.5
2015-Jun-28 02:33N 46°50' W 005°08'8 1.9
2015-Jun-27 22:29N 46°55' W 005°16'3 1.1
2015-Jun-27 20:03N 46°58' W 005°18'1 1.0
2015-Jun-27 19:31N 46°58' W 005°18'0 0.2
2015-Jun-27 18:28N 46°58' W 005°18'1 1.3
2015-Jun-27 17:33N 46°57' W 005°18'1 1.3
2015-Jun-27 16:33N 46°56' W 005°17'1 1.4
2015-Jun-27 15:32N 46°55' W 005°16'1 1.0
2015-Jun-27 14:33N 46°54' W 005°16'4 3.1
2015-Jun-27 13:24N 46°50' W 005°13'0 0.0
2015-Jun-27 02:12N 46°50' W 005°13'4 0.4
2015-Jun-26 15:33N 46°54' W 005°16'1 1.4
2015-Jun-26 14:33N 46°52' W 005°15'2 2.4
2015-Jun-26 13:33N 46°50' W 005°13'1 1.2
2015-Jun-26 12:33N 46°50' W 005°12'1 1.0
2015-Jun-26 11:17N 46°50' W 005°10'2 1.1
2015-Jun-26 09:03N 46°51' W 005°07'1 1.0
2015-Jun-26 08:33N 46°51' W 005°06'2 1.8
2015-Jun-26 07:33N 46°49' W 005°06'1 0.7
2015-Jun-26 06:33N 46°49' W 005°07'1 0.7
2015-Jun-26 05:33N 46°49' W 005°08'1 1.4
2015-Jun-26 04:33N 46°49' W 005°10'10 7.9
2015-Jun-26 03:18N 46°58' W 005°17'6 8.1
2015-Jun-26 02:33N 46°52' W 005°16'7 6.9
2015-Jun-26 01:29N 46°51' W 005°06'0 0.2
2015-Jun-26 00:33N 46°51' W 005°06'8 7.7
2015-Jun-25 23:33N 46°53' W 005°16'1 1.0
2015-Jun-25 22:33N 46°54' W 005°17'1 1.0
2015-Jun-25 21:33N 46°55' W 005°16'1 1.1
2015-Jun-25 20:33N 46°56' W 005°16'1 1.1
2015-Jun-25 19:24N 46°57' W 005°17'1 0.8
2015-Jun-25 18:33N 46°58' W 005°16'1 1.1
2015-Jun-25 17:32N 46°56' W 005°17'1 1.1
2015-Jun-25 16:33N 46°55' W 005°16'1 1.3
2015-Jun-25 15:33N 46°54' W 005°16'1 1.3
2015-Jun-25 14:34N 46°53' W 005°16'2 2.3
2015-Jun-25 13:30N 46°51' W 005°14'1 1.5
2015-Jun-25 12:33N 46°50' W 005°12'1 1.2
2015-Jun-25 11:33N 46°49' W 005°11'1 1.2
2015-Jun-25 10:32N 46°50' W 005°09'1 1.3
2015-Jun-25 09:33N 46°50' W 005°07'1 1.2
2015-Jun-25 08:24N 46°51' W 005°05'2 1.1
2015-Jun-25 06:33N 46°50' W 005°08'0 0.2
2015-Jun-25 05:07N 46°50' W 005°08'3 4.0
2015-Jun-25 04:21N 46°52' W 005°12'2 1.4
2015-Jun-25 02:32N 46°52' W 005°16'1 0.4
2015-Jun-25 00:31N 46°53' W 005°17'1 0.9
2015-Jun-24 23:30N 46°53' W 005°17'1 1.2
2015-Jun-24 22:32N 46°55' W 005°17'1 1.1
2015-Jun-24 21:22N 46°56' W 005°16'1 1.0
2015-Jun-24 20:34N 46°56' W 005°16'1 1.1
2015-Jun-24 19:33N 46°57' W 005°17'0 0.4
2015-Jun-24 18:33N 46°57' W 005°16'3 1.1
2015-Jun-24 15:31N 46°54' W 005°16'2 1.9
2015-Jun-24 14:14N 46°51' W 005°15'2 2.2
2015-Jun-24 13:23N 46°50' W 005°13'1 1.2
2015-Jun-24 12:23N 46°50' W 005°12'  
2015-Jun-20 23:32N 46°12' W 004°52'8 8.0
2015-Jun-20 22:33N 46°18' W 004°45'8 8.2
2015-Jun-20 21:33N 46°25' W 004°38'2 1.8
2015-Jun-20 20:33N 46°26' W 004°37'1 1.1
2015-Jun-20 19:33N 46°25' W 004°36'1 1.1
2015-Jun-20 18:33N 46°24' W 004°35'1 1.1
2015-Jun-20 17:34N 46°24' W 004°34'2 1.8
2015-Jun-20 16:30N 46°24' W 004°32'1 1.2
2015-Jun-20 15:34N 46°23' W 004°31'1 1.0
2015-Jun-20 14:33N 46°22' W 004°30'1 1.3
2015-Jun-20 13:34N 46°21' W 004°29'4 3.6
2015-Jun-20 12:33N 46°17' W 004°28'1 0.6
2015-Jun-20 11:33N 46°17' W 004°27'1 0.7
2015-Jun-20 10:18N 46°18' W 004°26'1 0.9
2015-Jun-20 09:22N 46°19' W 004°26'1 0.7
2015-Jun-20 08:26N 46°19' W 004°26'1 0.7
2015-Jun-20 07:32N 46°20' W 004°26'1 0.7
2015-Jun-20 06:33N 46°21' W 004°26'1 0.6
2015-Jun-20 05:32N 46°21' W 004°27'1 0.5
2015-Jun-20 04:33N 46°22' W 004°27'1 0.8
2015-Jun-20 03:28N 46°21' W 004°28'4 4.4
2015-Jun-20 02:33N 46°23' W 004°34'9 6.4
2015-Jun-20 01:13N 46°30' W 004°40'710.2
2015-Jun-20 00:32N 46°34' W 004°48'  

Dump ship's entire track history